createdAt,value
2018-05-15T10:13:17.093Z,9092.00
2018-05-15T10:14:17.114Z,9464.00
2018-05-15T10:16:11.698Z,10032.00
2018-05-15T10:17:11.632Z,10152.00
2018-05-15T10:19:04.755Z,10292.00
2018-05-15T10:20:04.847Z,10324.00
2018-05-15T10:21:58.048Z,9684.00
2018-05-15T10:22:57.957Z,9672.00
2018-05-15T10:24:51.078Z,10632.00
2018-05-15T10:25:50.995Z,10988.00
2018-05-15T10:27:44.167Z,11184.00
2018-05-15T10:28:44.078Z,11428.00
2018-05-15T10:30:38.750Z,10792.00
2018-05-15T10:31:38.684Z,9848.00
2018-05-15T10:33:31.807Z,9220.00
2018-05-15T10:34:31.777Z,9464.00
2018-05-15T10:36:25.039Z,9664.00
2018-05-15T10:37:24.996Z,9324.00
2018-05-15T10:39:18.084Z,8884.00
2018-05-15T10:40:18.012Z,8668.00
2018-05-15T10:42:11.135Z,8780.00
2018-05-15T10:43:11.064Z,8772.00
2018-05-15T10:45:05.757Z,8636.00
2018-05-15T10:46:05.703Z,8384.00
2018-05-15T10:47:58.848Z,8280.00
2018-05-15T10:48:58.767Z,8324.00
2018-05-15T10:50:52.054Z,8504.00
2018-05-15T10:51:51.867Z,8440.00
2018-05-15T10:53:45.175Z,8460.00
2018-05-15T10:54:46.263Z,8524.00
2018-05-15T10:56:38.149Z,8936.00
2018-05-15T10:57:38.111Z,9040.00
2018-05-15T10:59:32.785Z,8980.00
2018-05-15T11:00:32.661Z,9060.00
2018-05-15T11:02:25.766Z,9352.00
2018-05-15T11:03:25.703Z,9484.00
2018-05-15T11:05:19.202Z,9908.00
2018-05-15T11:06:18.863Z,9416.00
2018-05-15T11:08:12.010Z,8568.00
2018-05-15T11:09:11.915Z,9076.00
2018-05-15T11:11:05.022Z,9548.00
2018-05-15T11:12:04.945Z,9736.00
2018-05-15T11:13:58.145Z,9764.00
2018-05-15T11:14:58.051Z,9276.00
2018-05-15T11:16:51.163Z,8564.00
2018-05-15T11:17:51.068Z,8336.00
2018-05-15T11:19:45.739Z,8268.00
2018-05-15T11:20:45.647Z,7404.00
2018-05-15T11:22:38.780Z,8696.00
2018-05-15T11:23:38.721Z,9068.00
2018-05-15T11:25:31.916Z,8216.00
2018-05-15T11:26:31.795Z,7652.00
2018-05-15T11:28:24.969Z,6908.00
2018-05-15T11:29:24.851Z,6840.00
2018-05-15T11:31:18.014Z,6584.00
2018-05-15T11:32:17.908Z,6388.00
2018-05-15T11:34:11.118Z,6208.00
2018-05-15T11:35:11.005Z,6140.00
2018-05-15T11:36:11.002Z,6188.00
2018-05-15T11:37:10.997Z,6120.00
2018-05-15T11:38:10.962Z,6124.00
2018-05-15T11:39:10.950Z,6076.00
2018-05-15T11:40:10.944Z,6096.00
2018-05-15T11:41:10.940Z,6220.00
2018-05-15T11:42:10.934Z,6280.00
2018-05-15T11:43:10.920Z,6456.00
2018-05-15T11:44:10.907Z,6412.00
2018-05-15T11:45:10.889Z,6316.00
2018-05-15T11:46:10.891Z,6208.00
2018-05-15T11:47:10.896Z,6108.00
2018-05-15T11:48:11.373Z,6032.00
2018-05-15T11:49:11.384Z,6056.00
2018-05-15T11:50:11.453Z,6072.00
2018-05-15T11:51:11.419Z,6060.00
2018-05-15T11:52:11.569Z,6100.00
2018-05-15T11:53:11.716Z,6092.00
2018-05-15T11:54:10.815Z,6024.00
2018-05-15T11:55:10.822Z,6040.00
2018-05-15T11:56:10.817Z,6040.00
2018-05-15T11:57:10.813Z,6036.00
2018-05-15T11:58:10.917Z,5964.00
2018-05-15T11:59:10.793Z,5900.00
2018-05-15T12:00:10.896Z,6008.00
2018-05-15T12:01:10.772Z,5972.00
2018-05-15T12:02:10.791Z,5996.00
2018-05-15T12:03:10.751Z,6072.00
2018-05-15T12:04:10.846Z,6108.00
2018-05-15T12:05:10.750Z,6152.00
2018-05-15T12:06:10.740Z,6160.00
2018-05-15T12:07:10.726Z,6128.00
2018-05-15T12:08:10.793Z,6144.00
2018-05-15T12:09:10.720Z,6164.00
2018-05-15T12:10:10.714Z,6240.00
2018-05-15T12:11:10.692Z,6208.00
2018-05-15T12:12:10.682Z,6164.00
2018-05-15T12:13:10.691Z,6092.00
2018-05-15T12:14:11.054Z,6052.00
2018-05-15T12:15:10.894Z,6000.00
2018-05-15T12:16:10.701Z,5944.00
2018-05-15T12:17:10.662Z,5992.00
2018-05-15T12:18:10.642Z,6008.00
2018-05-15T12:19:10.638Z,6072.00
2018-05-15T12:20:10.623Z,6148.00
2018-05-15T12:21:10.677Z,6428.00
2018-05-15T12:22:10.595Z,6780.00
2018-05-15T12:23:10.613Z,6840.00
2018-05-15T12:24:10.578Z,6720.00
2018-05-15T12:25:10.563Z,6576.00
2018-05-15T12:26:10.550Z,6508.00
2018-05-15T12:27:10.552Z,6924.00
2018-05-15T12:28:10.546Z,7048.00
2018-05-15T12:29:10.591Z,6500.00
2018-05-15T12:30:10.560Z,6132.00
2018-05-15T12:31:10.520Z,5968.00
2018-05-15T12:32:10.517Z,5732.00
2018-05-15T12:33:10.517Z,5700.00
2018-05-15T12:34:10.507Z,5612.00
2018-05-15T12:35:10.500Z,5016.00
2018-05-15T12:36:10.515Z,5260.00
2018-05-15T12:37:10.486Z,5444.00
2018-05-15T12:38:10.451Z,5444.00
2018-05-15T12:39:10.470Z,5320.00
2018-05-15T12:40:10.442Z,5256.00
2018-05-15T12:41:10.539Z,5256.00
2018-05-15T12:42:10.805Z,5268.00
2018-05-15T12:43:10.515Z,5240.00
2018-05-15T12:44:10.416Z,5284.00
2018-05-15T12:45:10.448Z,5212.00
2018-05-15T12:46:10.398Z,5336.00
2018-05-15T12:47:10.373Z,5392.00
2018-05-15T12:48:10.427Z,5560.00
2018-05-15T12:49:10.558Z,5320.00
2018-05-15T12:50:10.389Z,5324.00
2018-05-15T12:51:10.384Z,5284.00
2018-05-15T12:52:10.412Z,5288.00
2018-05-15T12:53:10.331Z,5232.00
2018-05-15T12:54:10.361Z,5232.00
2018-05-15T12:55:10.419Z,5260.00
2018-05-15T12:56:10.316Z,5188.00
2018-05-15T12:57:10.309Z,5188.00
2018-05-15T12:58:10.299Z,5176.00
2018-05-15T12:59:10.283Z,5184.00
2018-05-15T13:00:10.310Z,5212.00
2018-05-15T13:01:10.283Z,5280.00
2018-05-15T13:02:10.264Z,5332.00
2018-05-15T13:03:10.246Z,5368.00
2018-05-15T13:04:10.220Z,5496.00
2018-05-15T13:05:10.216Z,5380.00
2018-05-15T13:06:10.233Z,5364.00
2018-05-15T13:07:10.216Z,5304.00
2018-05-15T13:08:10.231Z,5180.00
2018-05-15T13:09:10.174Z,5280.00
2018-05-15T13:10:10.199Z,4880.00
2018-05-15T13:11:10.174Z,4876.00
2018-05-15T13:12:10.188Z,4940.00
2018-05-15T13:13:10.158Z,4956.00
2018-05-15T13:14:10.168Z,4948.00
2018-05-15T13:15:10.142Z,5000.00
2018-05-15T13:16:10.140Z,5056.00
2018-05-15T13:17:10.108Z,5060.00
2018-05-15T13:18:10.111Z,5056.00
2018-05-15T13:19:10.157Z,5096.00
2018-05-15T13:20:10.088Z,5088.00
2018-05-15T13:21:10.071Z,5100.00
2018-05-15T13:22:10.054Z,5024.00
2018-05-15T13:23:10.038Z,4992.00
2018-05-15T13:24:10.050Z,5012.00
2018-05-15T13:25:10.027Z,5044.00
2018-05-15T13:26:10.036Z,5008.00
2018-05-15T13:27:10.023Z,5032.00
2018-05-15T13:28:10.003Z,5004.00
2018-05-15T13:29:09.992Z,5036.00
2018-05-15T13:30:10.006Z,5112.00
2018-05-15T13:31:09.995Z,5124.00
2018-05-15T13:32:09.971Z,5168.00
2018-05-15T13:33:09.993Z,5276.00
2018-05-15T13:34:09.987Z,5352.00
2018-05-15T13:35:09.931Z,5416.00
2018-05-15T13:36:09.947Z,5516.00
2018-05-15T13:37:09.949Z,5392.00
2018-05-15T13:38:09.933Z,5364.00
2018-05-15T13:39:09.902Z,5380.00
2018-05-15T13:40:09.938Z,5392.00
2018-05-15T13:41:09.936Z,5484.00
2018-05-15T13:42:09.897Z,5520.00
2018-05-15T13:43:09.884Z,5524.00
2018-05-15T13:44:09.923Z,5548.00
2018-05-15T13:45:09.863Z,5604.00
2018-05-15T13:46:09.847Z,5728.00
2018-05-15T13:47:09.844Z,5896.00
2018-05-15T13:48:09.851Z,6208.00
2018-05-15T13:49:09.843Z,6564.00
2018-05-15T13:50:09.813Z,6496.00
2018-05-15T13:51:09.828Z,6408.00
2018-05-15T13:52:09.831Z,6052.00
2018-05-15T13:53:09.835Z,6348.00
2018-05-15T13:54:09.819Z,6824.00
2018-05-15T13:55:09.794Z,7148.00
2018-05-15T13:56:09.761Z,7352.00
2018-05-15T13:57:09.760Z,7680.00
2018-05-15T13:58:09.762Z,7852.00
2018-05-15T13:59:09.780Z,7888.00
2018-05-15T14:00:09.731Z,7396.00
2018-05-15T14:01:09.738Z,6864.00
2018-05-15T14:02:09.692Z,6744.00
2018-05-15T14:03:09.701Z,6920.00
2018-05-15T14:04:09.713Z,6896.00
2018-05-15T14:05:09.688Z,6592.00
2018-05-15T14:06:09.681Z,6344.00
2018-05-15T14:07:09.684Z,6092.00
2018-05-15T14:08:09.664Z,5940.00
2018-05-15T14:09:09.716Z,5744.00
2018-05-15T14:10:09.651Z,5532.00
2018-05-15T14:11:09.643Z,5476.00
2018-05-15T14:12:09.637Z,5392.00
2018-05-15T14:13:09.619Z,5344.00
2018-05-15T14:14:09.628Z,5388.00
2018-05-15T14:15:09.601Z,5396.00
2018-05-15T14:16:09.596Z,5488.00
2018-05-15T14:17:09.596Z,5716.00
2018-05-15T14:18:09.583Z,5868.00
2018-05-15T14:19:09.677Z,5892.00
2018-05-15T14:20:09.599Z,5804.00
2018-05-15T14:21:09.556Z,5712.00
2018-05-15T14:22:09.563Z,5784.00
2018-05-15T14:23:09.559Z,5976.00
2018-05-15T14:24:09.537Z,6140.00
2018-05-15T14:25:09.521Z,6256.00
2018-05-15T14:26:09.531Z,6332.00
2018-05-15T14:27:09.489Z,6284.00
2018-05-15T14:28:09.577Z,6040.00
2018-05-15T14:29:09.490Z,5880.00
2018-05-15T14:30:09.508Z,5724.00
2018-05-15T14:31:09.476Z,5636.00
2018-05-15T14:32:09.472Z,5708.00
2018-05-15T14:33:09.459Z,5880.00
2018-05-15T14:34:09.456Z,5956.00
2018-05-15T14:35:09.462Z,5928.00
2018-05-15T14:36:09.449Z,5952.00
2018-05-15T14:37:09.422Z,5992.00
2018-05-15T14:38:09.408Z,5988.00
2018-05-15T14:39:09.409Z,5924.00
2018-05-15T14:40:09.437Z,5368.00
2018-05-15T14:41:09.386Z,4316.00
2018-05-15T14:42:09.387Z,4212.00
2018-05-15T14:43:09.416Z,5452.00
2018-05-15T14:44:09.354Z,5536.00
2018-05-15T14:45:09.332Z,5560.00
2018-05-15T14:46:09.337Z,5644.00
2018-05-15T14:47:09.349Z,5612.00
2018-05-15T14:48:09.341Z,5612.00
2018-05-15T14:49:09.317Z,5616.00
2018-05-15T14:50:09.322Z,5628.00
2018-05-15T14:51:09.297Z,5684.00
2018-05-15T14:52:09.304Z,5584.00
2018-05-15T14:53:09.298Z,5592.00
2018-05-15T14:54:09.287Z,5516.00
2018-05-15T14:55:09.294Z,5516.00
2018-05-15T14:56:09.269Z,5480.00
2018-05-15T14:57:09.253Z,5532.00
2018-05-15T14:58:09.231Z,5612.00
2018-05-15T14:59:09.491Z,5664.00
2018-05-15T15:00:09.250Z,5972.00
2018-05-15T15:01:09.221Z,6064.00
2018-05-15T15:02:09.210Z,6084.00
2018-05-15T15:03:09.216Z,5984.00
2018-05-15T15:04:09.236Z,5792.00
2018-05-15T15:05:09.196Z,5648.00
2018-05-15T15:06:09.149Z,5436.00
2018-05-15T15:07:09.164Z,5404.00
2018-05-15T15:08:09.168Z,5372.00
2018-05-15T15:09:09.160Z,5236.00
2018-05-15T15:10:09.144Z,5100.00
2018-05-15T15:11:09.135Z,3972.00
2018-05-15T15:12:09.115Z,4060.00
2018-05-15T15:13:09.117Z,4276.00
2018-05-15T15:14:09.115Z,4540.00
2018-05-15T15:15:09.102Z,4788.00
2018-05-15T15:16:09.123Z,5760.00
2018-05-15T15:17:09.116Z,5824.00
2018-05-15T15:18:09.097Z,5668.00
2018-05-15T15:19:09.087Z,5744.00
2018-05-15T15:20:09.090Z,5856.00
2018-05-15T15:21:09.029Z,5976.00
2018-05-15T15:22:09.052Z,5968.00
2018-05-15T15:23:09.052Z,5944.00
2018-05-15T15:24:09.029Z,5908.00
2018-05-15T15:25:09.037Z,5928.00
2018-05-15T15:26:09.026Z,5928.00
2018-05-15T15:27:08.992Z,5884.00
2018-05-15T15:28:09.025Z,5992.00
2018-05-15T15:29:09.049Z,6052.00
2018-05-15T15:30:08.973Z,5952.00
2018-05-15T15:31:09.004Z,6108.00
2018-05-15T15:32:08.970Z,5424.00
2018-05-15T15:33:08.946Z,5424.00
2018-05-15T15:34:08.923Z,6320.00
2018-05-15T15:35:09.013Z,6392.00
2018-05-15T15:36:08.932Z,6456.00
2018-05-15T15:37:08.932Z,6496.00
2018-05-15T15:38:08.929Z,6700.00
2018-05-15T15:39:08.876Z,7032.00
2018-05-15T15:40:08.940Z,7344.00
2018-05-15T15:41:08.876Z,7160.00
2018-05-15T15:42:08.835Z,7408.00
2018-05-15T15:43:08.827Z,7304.00
2018-05-15T15:44:08.844Z,7084.00
2018-05-15T15:45:08.885Z,6812.00
2018-05-15T15:46:08.845Z,6732.00
2018-05-15T15:47:08.794Z,6384.00
2018-05-15T15:48:08.817Z,5232.00
2018-05-15T15:49:08.769Z,5008.00
2018-05-15T15:50:08.755Z,4980.00
2018-05-15T15:51:08.778Z,5088.00
2018-05-15T15:52:08.743Z,5824.00
2018-05-15T15:53:08.734Z,5740.00
2018-05-15T15:54:08.753Z,5424.00
2018-05-15T15:55:08.717Z,5336.00
2018-05-15T15:56:08.726Z,5064.00
2018-05-15T15:57:08.702Z,5244.00
2018-05-15T15:58:08.692Z,4984.00
2018-05-15T15:59:08.680Z,5092.00
2018-05-15T16:00:08.685Z,5328.00
2018-05-15T16:01:08.672Z,5756.00
2018-05-15T16:02:08.655Z,5812.00
2018-05-15T16:03:08.668Z,6212.00
2018-05-15T16:04:08.758Z,6384.00
2018-05-15T16:05:08.667Z,6396.00
2018-05-15T16:06:08.723Z,6592.00
2018-05-15T16:07:08.610Z,6896.00
2018-05-15T16:08:08.597Z,7444.00
2018-05-15T16:09:08.659Z,7832.00
2018-05-15T16:10:08.693Z,7972.00
2018-05-15T16:11:08.578Z,8048.00
2018-05-15T16:12:08.583Z,8208.00
2018-05-15T16:13:08.566Z,7792.00
2018-05-15T16:14:08.568Z,7252.00
2018-05-15T16:15:08.569Z,6720.00
2018-05-15T16:16:08.573Z,6536.00
2018-05-15T16:17:08.550Z,6344.00
2018-05-15T16:18:08.525Z,5964.00
2018-05-15T16:19:08.507Z,5500.00
2018-05-15T16:20:08.497Z,5108.00
2018-05-15T16:21:08.503Z,5048.00
2018-05-15T16:22:08.568Z,5016.00
2018-05-15T16:23:08.503Z,5128.00
2018-05-15T16:24:08.478Z,5092.00
2018-05-15T16:25:08.472Z,5104.00
2018-05-15T16:26:08.450Z,5100.00
2018-05-15T16:27:08.438Z,5224.00
2018-05-15T16:28:08.428Z,5248.00
2018-05-15T16:29:08.427Z,4660.00
2018-05-15T16:30:08.422Z,4456.00
2018-05-15T16:31:08.487Z,4252.00
2018-05-15T16:32:08.415Z,4132.00
2018-05-15T16:33:08.391Z,4052.00
2018-05-15T16:34:08.421Z,3984.00
2018-05-15T16:35:08.373Z,3884.00
2018-05-15T16:36:08.362Z,3900.00
2018-05-15T16:37:08.364Z,3892.00
2018-05-15T16:38:08.360Z,3868.00
2018-05-15T16:39:08.367Z,4012.00
2018-05-15T16:40:08.340Z,4320.00
2018-05-15T16:41:08.329Z,4596.00
2018-05-15T16:42:08.349Z,4736.00
2018-05-15T16:43:08.306Z,4756.00
2018-05-15T16:44:08.309Z,4644.00
2018-05-15T16:45:08.303Z,4612.00
2018-05-15T16:46:08.313Z,4716.00
2018-05-15T16:47:08.276Z,4784.00
2018-05-15T16:48:08.289Z,4908.00
2018-05-15T16:49:08.243Z,5036.00
2018-05-15T16:50:08.262Z,5160.00
2018-05-15T16:51:08.248Z,5204.00
2018-05-15T16:52:08.266Z,5204.00
2018-05-15T16:53:08.267Z,5236.00
2018-05-15T16:54:08.227Z,5252.00
2018-05-15T16:55:08.204Z,5432.00
2018-05-15T16:56:08.191Z,5632.00
2018-05-15T16:57:08.192Z,5820.00
2018-05-15T16:58:08.197Z,6032.00
2018-05-15T16:59:08.217Z,6172.00
2018-05-15T17:00:08.178Z,6316.00
2018-05-15T17:01:08.166Z,6316.00
2018-05-15T17:02:08.143Z,6220.00
2018-05-15T17:03:08.144Z,6108.00
2018-05-15T17:04:08.131Z,5860.00
2018-05-15T17:05:08.114Z,5352.00
2018-05-15T17:06:08.214Z,5212.00
2018-05-15T17:07:08.108Z,5084.00
2018-05-15T17:08:08.221Z,4996.00
2018-05-15T17:09:08.085Z,4812.00
2018-05-15T17:10:08.062Z,4480.00
2018-05-15T17:11:08.071Z,4220.00
2018-05-15T17:12:08.091Z,4092.00
2018-05-15T17:13:08.149Z,4104.00
2018-05-15T17:14:08.039Z,4084.00
2018-05-15T17:15:08.032Z,4044.00
2018-05-15T17:16:08.059Z,4044.00
2018-05-15T17:17:08.020Z,4036.00
2018-05-15T17:18:07.977Z,4116.00
2018-05-15T17:19:07.977Z,4164.00
2018-05-15T17:20:08.003Z,4080.00
2018-05-15T17:21:07.992Z,4136.00
2018-05-15T17:22:07.948Z,4196.00
2018-05-15T17:23:07.959Z,4200.00
2018-05-15T17:24:08.001Z,4376.00
2018-05-15T17:25:07.945Z,4472.00
2018-05-15T17:26:07.941Z,4612.00
2018-05-15T17:27:07.905Z,4708.00
2018-05-15T17:28:07.927Z,4864.00
2018-05-15T17:29:07.882Z,5024.00
2018-05-15T17:30:07.893Z,5188.00
2018-05-15T17:31:07.936Z,5364.00
2018-05-15T17:32:07.859Z,5464.00
2018-05-15T17:33:07.879Z,5456.00
2018-05-15T17:34:07.875Z,5392.00
2018-05-15T17:35:07.872Z,5340.00
2018-05-15T17:36:07.891Z,5296.00
2018-05-15T17:37:07.845Z,5252.00
2018-05-15T17:38:07.840Z,5276.00
2018-05-15T17:39:07.851Z,5352.00
2018-05-15T17:40:07.846Z,5432.00
2018-05-15T17:41:07.825Z,5508.00
2018-05-15T17:42:07.814Z,5656.00
2018-05-15T17:43:07.812Z,5732.00
2018-05-15T17:44:07.772Z,5724.00
2018-05-15T17:45:07.783Z,5756.00
2018-05-15T17:46:07.778Z,5688.00
2018-05-15T17:47:07.748Z,5572.00
2018-05-15T17:48:07.769Z,5376.00
2018-05-15T17:49:07.776Z,5156.00
2018-05-15T17:50:07.737Z,4916.00
2018-05-15T17:51:07.725Z,4712.00
2018-05-15T17:52:07.700Z,4488.00
2018-05-15T17:53:07.774Z,4308.00
2018-05-15T17:54:07.705Z,4100.00
2018-05-15T17:55:07.671Z,3936.00
2018-05-15T17:56:07.721Z,3832.00
2018-05-15T17:57:07.670Z,3760.00
2018-05-15T17:58:07.653Z,3724.00
2018-05-15T17:59:07.674Z,3688.00
2018-05-15T18:00:07.669Z,3616.00
2018-05-15T18:01:07.610Z,3632.00
2018-05-15T18:02:07.643Z,3604.00
2018-05-15T18:03:07.623Z,3612.00
2018-05-15T18:04:07.600Z,3636.00
2018-05-15T18:05:07.568Z,3656.00
2018-05-15T18:06:07.574Z,3660.00
2018-05-15T18:07:07.579Z,3636.00
2018-05-15T18:08:07.598Z,3608.00
2018-05-15T18:09:07.552Z,3560.00
2018-05-15T18:10:07.560Z,3524.00
2018-05-15T18:11:07.528Z,3444.00
2018-05-15T18:12:07.521Z,3316.00
2018-05-15T18:13:07.524Z,3168.00
2018-05-15T18:14:07.487Z,3096.00
2018-05-15T18:15:07.498Z,3036.00
2018-05-15T18:16:07.456Z,2888.00
2018-05-15T18:17:07.445Z,2792.00
2018-05-15T18:18:07.465Z,2700.00
2018-05-15T18:19:07.429Z,2600.00
2018-05-15T18:20:07.432Z,2476.00
2018-05-15T18:21:07.439Z,2348.00
2018-05-15T18:22:07.457Z,2172.00
2018-05-15T18:23:07.405Z,2028.00
2018-05-15T18:24:07.410Z,1904.00
2018-05-15T18:25:07.396Z,1832.00
2018-05-15T18:26:07.380Z,1796.00
2018-05-15T18:27:07.404Z,1764.00
2018-05-15T18:28:07.396Z,1732.00
2018-05-15T18:29:07.389Z,1688.00
2018-05-15T18:30:07.374Z,1672.00
2018-05-15T18:31:07.388Z,1624.00
2018-05-15T18:32:07.313Z,1552.00
2018-05-15T18:33:07.425Z,1476.00
2018-05-15T18:34:07.324Z,1412.00
2018-05-15T18:35:07.276Z,1364.00
2018-05-15T18:36:07.308Z,1316.00
2018-05-15T18:37:07.282Z,1264.00
2018-05-15T18:38:07.274Z,1208.00
2018-05-15T18:39:07.305Z,1148.00
2018-05-15T18:40:07.255Z,1096.00
2018-05-15T18:41:07.259Z,1076.00
2018-05-15T18:42:07.239Z,1040.00
2018-05-15T18:43:07.237Z,1004.00
2018-05-15T18:44:07.225Z,964.00
2018-05-15T18:45:07.228Z,936.00
2018-05-15T18:46:07.204Z,912.00
2018-05-15T18:47:07.164Z,880.00
2018-05-15T18:48:07.167Z,856.00
2018-05-15T18:49:07.165Z,844.00
2018-05-15T18:50:07.147Z,832.00
2018-05-15T18:51:07.156Z,824.00
2018-05-15T18:52:07.113Z,808.00
2018-05-15T18:53:07.111Z,788.00
2018-05-15T18:54:07.101Z,748.00
2018-05-15T18:55:07.098Z,692.00
2018-05-15T18:56:07.158Z,628.00
2018-05-15T18:57:07.128Z,576.00
2018-05-15T18:58:07.065Z,520.00
2018-05-15T18:59:07.080Z,472.00
2018-05-15T19:00:07.065Z,428.00
2018-05-15T19:01:07.056Z,388.00
2018-05-15T19:02:07.042Z,360.00
2018-05-15T19:03:07.100Z,336.00
2018-05-15T19:04:06.997Z,312.00
2018-05-15T19:05:07.015Z,292.00
2018-05-15T19:06:07.021Z,284.00
2018-05-15T19:07:06.986Z,272.00
2018-05-15T19:08:25.658Z,260.00
2018-05-15T19:09:10.177Z,244.00
2018-05-15T19:10:06.979Z,228.00
2018-05-15T19:11:07.152Z,212.00
2018-05-15T19:12:06.939Z,200.00
2018-05-15T19:13:06.937Z,184.00
2018-05-15T19:14:06.949Z,168.00
2018-05-15T19:15:06.904Z,156.00
2018-05-15T19:16:06.944Z,144.00
2018-05-15T19:17:06.892Z,132.00
2018-05-15T19:18:06.886Z,124.00
2018-05-15T19:19:06.882Z,112.00
2018-05-15T19:20:06.873Z,104.00
2018-05-15T19:21:06.862Z,92.00
2018-05-15T19:22:06.859Z,84.00
2018-05-15T19:23:06.857Z,72.00
2018-05-15T19:24:06.810Z,64.00
2018-05-15T19:25:06.792Z,56.00
2018-05-15T19:26:06.803Z,56.00
2018-05-15T19:27:06.807Z,48.00
2018-05-15T19:28:06.775Z,40.00
2018-05-15T19:29:06.782Z,36.00
2018-05-15T19:30:06.768Z,32.00
2018-05-15T19:31:06.752Z,28.00
2018-05-15T19:32:06.763Z,24.00
2018-05-15T19:33:06.755Z,20.00
2018-05-15T19:34:06.730Z,20.00
2018-05-15T19:35:06.736Z,16.00
2018-05-15T19:36:06.738Z,16.00
2018-05-15T19:37:06.697Z,12.00
2018-05-15T19:38:06.680Z,12.00
2018-05-15T19:39:06.680Z,8.00
2018-05-15T19:40:06.667Z,8.00
2018-05-15T19:41:06.660Z,8.00
2018-05-15T19:42:06.658Z,8.00
2018-05-15T19:43:06.630Z,4.00
2018-05-15T19:44:06.669Z,8.00
2018-05-15T19:45:06.593Z,4.00
2018-05-15T19:46:06.589Z,4.00
2018-05-15T19:47:06.575Z,0.00
2018-05-15T19:48:06.586Z,4.00
2018-05-15T19:49:06.559Z,4.00
2018-05-15T19:50:06.557Z,24.00
2018-05-15T19:51:06.591Z,32.00
2018-05-15T19:52:06.551Z,0.00
2018-05-15T19:53:06.526Z,0.00
2018-05-15T19:54:06.503Z,0.00
2018-05-15T19:55:06.496Z,0.00
2018-05-15T19:56:06.516Z,0.00
2018-05-15T19:57:06.493Z,0.00
2018-05-15T19:58:06.444Z,0.00
2018-05-15T19:59:06.450Z,0.00
2018-05-15T20:00:06.451Z,0.00
2018-05-15T20:01:06.443Z,0.00
2018-05-15T20:02:06.413Z,0.00
2018-05-15T20:03:06.478Z,0.00
2018-05-15T20:04:06.443Z,0.00
2018-05-15T20:05:06.417Z,0.00
2018-05-15T20:06:06.357Z,0.00
2018-05-15T20:07:06.345Z,0.00
2018-05-15T20:08:06.362Z,0.00
2018-05-15T20:09:06.432Z,0.00
2018-05-15T20:10:06.376Z,0.00
2018-05-15T20:11:06.362Z,0.00
2018-05-15T20:12:06.313Z,0.00
2018-05-15T20:13:06.322Z,0.00
2018-05-15T20:14:06.324Z,0.00
2018-05-15T20:15:06.292Z,0.00
2018-05-15T20:16:06.351Z,0.00
2018-05-15T20:17:06.260Z,0.00
2018-05-15T20:18:06.265Z,0.00
2018-05-15T20:19:06.234Z,0.00
2018-05-15T20:20:06.252Z,28.00
2018-05-15T20:21:06.245Z,36.00
2018-05-15T20:22:06.200Z,32.00
2018-05-15T20:23:06.159Z,32.00
2018-05-15T20:24:06.147Z,32.00
2018-05-15T20:25:06.139Z,32.00
2018-05-15T20:26:06.172Z,28.00
2018-05-15T20:27:06.127Z,32.00
2018-05-15T20:28:06.132Z,32.00
2018-05-15T20:29:06.155Z,32.00
2018-05-15T20:30:06.142Z,32.00
2018-05-15T20:31:06.187Z,32.00
2018-05-15T20:32:06.057Z,28.00
2018-05-15T20:33:06.071Z,28.00
2018-05-15T20:34:06.167Z,28.00
2018-05-15T20:35:06.087Z,28.00
2018-05-15T20:36:06.067Z,28.00
2018-05-15T20:37:06.062Z,28.00
2018-05-15T20:38:06.015Z,28.00
2018-05-15T20:39:05.991Z,28.00
2018-05-15T20:40:06.055Z,28.00
2018-05-15T20:41:06.577Z,28.00
2018-05-15T20:42:05.992Z,28.00
2018-05-15T20:43:05.964Z,28.00
2018-05-15T20:44:05.920Z,28.00
2018-05-15T20:45:05.930Z,28.00
2018-05-15T20:46:05.910Z,28.00
2018-05-15T20:47:05.877Z,28.00
2018-05-15T20:48:05.879Z,28.00
2018-05-15T20:49:05.874Z,28.00
2018-05-15T20:50:05.848Z,28.00
2018-05-15T20:51:05.852Z,28.00
2018-05-15T20:52:05.851Z,28.00
2018-05-15T20:53:05.803Z,28.00
2018-05-15T20:54:05.793Z,28.00
2018-05-15T20:55:05.785Z,28.00
2018-05-15T20:56:05.786Z,28.00
2018-05-15T20:57:05.753Z,28.00
2018-05-15T20:58:05.817Z,28.00
2018-05-15T20:59:05.773Z,28.00
2018-05-15T21:00:05.738Z,28.00
2018-05-15T21:01:05.747Z,28.00
2018-05-15T21:02:05.718Z,28.00
2018-05-15T21:03:05.691Z,28.00
2018-05-15T21:04:05.718Z,28.00
2018-05-15T21:05:05.668Z,28.00
2018-05-15T21:06:05.653Z,28.00
2018-05-15T21:07:05.653Z,28.00
2018-05-15T21:08:05.681Z,28.00
2018-05-15T21:09:05.619Z,28.00
2018-05-15T21:10:05.632Z,28.00
2018-05-15T21:11:05.599Z,28.00
2018-05-15T21:12:05.582Z,28.00
2018-05-15T21:13:05.578Z,28.00
2018-05-15T21:14:05.569Z,28.00
2018-05-15T21:15:05.612Z,28.00
2018-05-15T21:16:05.544Z,28.00
2018-05-15T21:17:05.588Z,28.00
2018-05-15T21:18:05.545Z,28.00
2018-05-15T21:19:05.526Z,28.00
2018-05-15T21:20:05.634Z,28.00
2018-05-15T21:21:05.518Z,28.00
2018-05-15T21:22:05.535Z,28.00
2018-05-15T21:23:05.491Z,28.00
2018-05-15T21:24:05.469Z,28.00
2018-05-15T21:25:05.439Z,28.00
2018-05-15T21:26:05.450Z,28.00
2018-05-15T21:27:05.416Z,28.00
2018-05-15T21:28:05.402Z,28.00
2018-05-15T21:29:05.407Z,28.00
2018-05-15T21:30:05.511Z,28.00
2018-05-15T21:31:05.375Z,28.00
2018-05-15T21:32:05.550Z,28.00
2018-05-15T21:33:05.334Z,28.00
2018-05-15T21:34:05.333Z,28.00
2018-05-15T21:35:05.328Z,28.00
2018-05-15T21:36:05.347Z,28.00
2018-05-15T21:37:05.299Z,28.00
2018-05-15T21:38:05.300Z,28.00
2018-05-15T21:39:05.319Z,28.00
2018-05-15T21:40:05.270Z,0.00
2018-05-15T21:41:05.282Z,0.00
2018-05-15T21:42:05.272Z,0.00
2018-05-15T21:43:05.239Z,0.00
2018-05-15T21:44:05.222Z,0.00
2018-05-15T21:45:05.207Z,0.00
2018-05-15T21:46:05.215Z,0.00
2018-05-15T21:47:05.218Z,0.00
2018-05-15T21:48:05.223Z,0.00
2018-05-15T21:49:05.175Z,0.00
2018-05-15T21:50:05.145Z,0.00
2018-05-15T21:51:05.142Z,0.00
2018-05-15T21:52:05.123Z,0.00
2018-05-15T21:53:05.134Z,0.00
2018-05-15T21:54:05.094Z,0.00
2018-05-15T21:55:05.103Z,0.00
2018-05-15T21:56:05.081Z,0.00
2018-05-15T21:57:05.068Z,0.00
2018-05-15T21:58:05.048Z,0.00
2018-05-15T21:59:05.059Z,0.00
2018-05-15T22:00:05.024Z,0.00
2018-05-15T22:01:05.096Z,0.00
2018-05-15T22:02:05.002Z,0.00
2018-05-15T22:03:04.992Z,0.00
2018-05-15T22:04:04.986Z,0.00
2018-05-15T22:05:04.994Z,0.00
2018-05-15T22:06:04.980Z,0.00
2018-05-15T22:07:04.945Z,0.00
2018-05-15T22:08:04.932Z,0.00
2018-05-15T22:09:04.922Z,0.00
2018-05-15T22:10:04.920Z,0.00
2018-05-15T22:11:04.897Z,0.00
2018-05-15T22:12:04.882Z,0.00
2018-05-15T22:13:04.870Z,0.00
2018-05-15T22:14:04.856Z,0.00
2018-05-15T22:15:04.847Z,0.00
2018-05-15T22:16:04.830Z,0.00
2018-05-15T22:17:04.813Z,0.00
2018-05-15T22:18:04.817Z,0.00
2018-05-15T22:19:04.827Z,0.00
2018-05-15T22:20:04.783Z,0.00
2018-05-15T22:21:04.772Z,0.00
2018-05-15T22:22:04.763Z,0.00
2018-05-15T22:23:04.748Z,0.00
2018-05-15T22:24:04.778Z,0.00
2018-05-15T22:25:04.727Z,0.00
2018-05-15T22:26:04.715Z,0.00
2018-05-15T22:27:04.702Z,0.00
2018-05-15T22:28:04.692Z,0.00
2018-05-15T22:29:04.675Z,0.00
2018-05-15T22:30:04.676Z,0.00
2018-05-15T22:31:04.652Z,0.00
2018-05-15T22:32:04.649Z,0.00
2018-05-15T22:33:04.636Z,0.00
2018-05-15T22:34:04.615Z,0.00
2018-05-15T22:35:04.608Z,0.00
2018-05-15T22:36:04.596Z,0.00
2018-05-15T22:37:04.585Z,0.00
2018-05-15T22:38:04.570Z,0.00
2018-05-15T22:39:04.572Z,0.00
2018-05-15T22:40:04.558Z,0.00
2018-05-15T22:41:04.526Z,0.00
2018-05-15T22:42:04.522Z,0.00
2018-05-15T22:43:04.577Z,0.00
2018-05-15T22:44:04.493Z,0.00
2018-05-15T22:45:04.544Z,0.00
2018-05-15T22:46:04.491Z,0.00
2018-05-15T22:47:04.506Z,0.00
2018-05-15T22:48:04.459Z,0.00
2018-05-15T22:49:04.433Z,0.00
2018-05-15T22:50:04.487Z,0.00
2018-05-15T22:51:04.417Z,0.00
2018-05-15T22:52:04.395Z,0.00
2018-05-15T22:53:04.391Z,0.00
2018-05-15T22:54:04.394Z,0.00
2018-05-15T22:55:04.402Z,0.00
2018-05-15T22:56:04.359Z,0.00
2018-05-15T22:57:04.342Z,0.00
2018-05-15T22:58:04.326Z,0.00
2018-05-15T22:59:04.321Z,0.00
2018-05-15T23:00:04.308Z,0.00
2018-05-15T23:01:04.291Z,0.00